createdAt,value
2017-10-23T00:00:21.767Z,5.90
2017-10-23T00:02:54.079Z,5.90
2017-10-23T00:05:21.654Z,5.80
2017-10-23T00:07:49.223Z,5.80
2017-10-23T00:10:17.796Z,5.80
2017-10-23T00:12:46.118Z,5.70
2017-10-23T00:15:13.679Z,5.70
2017-10-23T00:17:41.242Z,5.70
2017-10-23T00:20:08.855Z,5.60
2017-10-23T00:22:36.413Z,5.60
2017-10-23T00:25:04.011Z,5.60
2017-10-23T00:27:31.562Z,5.60
2017-10-23T00:29:59.903Z,5.60
2017-10-23T00:32:27.531Z,5.60
2017-10-23T00:34:55.097Z,5.70
2017-10-23T00:37:22.664Z,5.70
2017-10-23T00:39:50.230Z,5.80
2017-10-23T00:42:17.902Z,5.90
2017-10-23T00:44:45.455Z,6.00
2017-10-23T00:47:13.013Z,6.00
2017-10-23T00:49:40.574Z,6.10
2017-10-23T00:52:08.903Z,6.20
2017-10-23T00:54:36.483Z,6.20
2017-10-23T00:57:04.058Z,6.30
2017-10-23T00:59:32.627Z,6.30
2017-10-23T01:02:00.216Z,6.30
2017-10-23T01:04:28.562Z,6.30
2017-10-23T01:06:56.351Z,6.30
2017-10-23T01:09:23.905Z,6.40
2017-10-23T01:11:51.472Z,6.40
2017-10-23T01:14:19.071Z,6.40
2017-10-23T01:16:47.383Z,6.40
2017-10-23T01:19:14.962Z,6.30
2017-10-23T01:21:42.563Z,6.40
2017-10-23T01:24:10.139Z,6.40
2017-10-23T01:26:37.767Z,6.50
2017-10-23T01:29:05.327Z,6.50
2017-10-23T01:31:32.907Z,6.50
2017-10-23T01:34:00.514Z,6.50
2017-10-23T01:36:28.839Z,6.50
2017-10-23T01:38:56.431Z,6.50
2017-10-23T01:41:24.020Z,6.50
2017-10-23T01:43:52.377Z,6.40
2017-10-23T01:46:19.981Z,6.40
2017-10-23T01:48:48.313Z,6.40
2017-10-23T01:51:15.891Z,6.40
2017-10-23T01:53:43.457Z,6.40
2017-10-23T01:56:11.012Z,6.40
2017-10-23T01:58:38.607Z,6.30
2017-10-23T02:01:06.917Z,6.30
2017-10-23T02:03:34.521Z,6.30
2017-10-23T02:06:03.133Z,6.40
2017-10-23T02:08:30.695Z,6.30
2017-10-23T02:10:58.284Z,6.30
2017-10-23T02:13:26.577Z,6.30
2017-10-23T02:15:54.874Z,6.30
2017-10-23T02:18:22.429Z,6.30
2017-10-23T02:20:49.966Z,6.30
2017-10-23T02:23:18.293Z,6.40
2017-10-23T02:25:45.840Z,6.30
2017-10-23T02:28:13.385Z,6.30
2017-10-23T02:30:40.963Z,6.30
2017-10-23T02:33:08.513Z,6.30
2017-10-23T02:35:36.849Z,6.30
2017-10-23T02:38:04.403Z,6.30
2017-10-23T02:40:31.940Z,6.30
2017-10-23T02:42:59.527Z,6.30
2017-10-23T02:45:27.089Z,6.30
2017-10-23T02:47:54.638Z,6.30
2017-10-23T02:50:22.188Z,6.30
2017-10-23T02:52:50.504Z,6.40
2017-10-23T02:55:18.858Z,6.40
2017-10-23T02:57:46.392Z,6.30
2017-10-23T03:00:13.910Z,6.40
2017-10-23T03:02:41.473Z,6.40
2017-10-23T03:05:09.112Z,6.40
2017-10-23T03:07:37.445Z,6.30
2017-10-23T03:10:05.023Z,6.30
2017-10-23T03:12:32.556Z,6.30
2017-10-23T03:15:00.117Z,6.20
2017-10-23T03:17:27.677Z,6.10
2017-10-23T03:19:55.276Z,6.10
2017-10-23T03:22:22.847Z,6.10
2017-10-23T03:24:50.410Z,6.00
2017-10-23T03:27:17.968Z,6.10
2017-10-23T03:29:45.512Z,6.10
2017-10-23T03:32:13.088Z,6.10
2017-10-23T03:34:40.859Z,6.10
2017-10-23T03:37:08.469Z,6.10
2017-10-23T03:39:36.804Z,6.10
2017-10-23T03:42:04.354Z,6.10
2017-10-23T03:44:31.947Z,6.10
2017-10-23T03:46:59.506Z,6.10
2017-10-23T03:49:27.060Z,6.10
2017-10-23T03:51:55.635Z,6.10
2017-10-23T03:54:23.947Z,6.10
2017-10-23T03:56:52.366Z,6.00
2017-10-23T03:59:20.704Z,5.90
2017-10-23T04:01:48.261Z,5.90
2017-10-23T04:04:15.801Z,5.90
2017-10-23T04:06:43.380Z,5.80
2017-10-23T04:09:10.924Z,5.80
2017-10-23T04:11:38.508Z,5.70
2017-10-23T04:14:06.102Z,5.70
2017-10-23T04:16:33.658Z,5.70
2017-10-23T04:19:01.249Z,5.70
2017-10-23T04:21:28.840Z,5.70
2017-10-23T04:23:56.438Z,5.70
2017-10-23T04:26:23.984Z,5.70
2017-10-23T04:28:51.564Z,5.80
2017-10-23T04:31:19.401Z,5.90
2017-10-23T04:33:47.731Z,6.00
2017-10-23T04:36:15.296Z,6.00
2017-10-23T04:38:42.846Z,6.00
2017-10-23T04:41:10.432Z,6.00
2017-10-23T04:43:38.051Z,6.00
2017-10-23T04:46:05.603Z,6.00
2017-10-23T04:48:33.929Z,5.90
2017-10-23T04:51:01.493Z,5.90
2017-10-23T04:53:29.117Z,5.90
2017-10-23T04:55:56.783Z,5.90
2017-10-23T04:58:25.140Z,6.00
2017-10-23T05:01:00.061Z,6.00
2017-10-23T05:03:27.667Z,6.00
2017-10-23T05:05:56.003Z,5.90
2017-10-23T05:08:23.582Z,5.90
2017-10-23T05:10:51.176Z,6.00
2017-10-23T05:13:19.532Z,5.90
2017-10-23T05:15:47.989Z,5.90
2017-10-23T05:18:15.625Z,5.90
2017-10-23T05:20:43.166Z,5.90
2017-10-23T05:23:10.804Z,5.90
2017-10-23T05:25:38.412Z,5.90
2017-10-23T05:28:06.729Z,5.90
2017-10-23T05:30:34.337Z,5.90
2017-10-23T05:33:02.705Z,6.00
2017-10-23T05:35:30.262Z,6.00
2017-10-23T05:37:57.853Z,5.90
2017-10-23T05:40:26.250Z,5.90
2017-10-23T05:42:53.865Z,5.90
2017-10-23T05:45:21.572Z,5.90
2017-10-23T05:47:49.259Z,5.90
2017-10-23T05:50:17.648Z,5.90
2017-10-23T05:52:45.210Z,5.90
2017-10-23T05:55:12.805Z,5.90
2017-10-23T05:57:40.401Z,5.90
2017-10-23T06:00:07.987Z,6.00
2017-10-23T06:02:36.317Z,6.00
2017-10-23T06:05:04.700Z,6.10
2017-10-23T06:07:32.286Z,6.00
2017-10-23T06:09:59.921Z,6.00
2017-10-23T06:12:29.742Z,6.10
2017-10-23T06:14:57.404Z,6.10
2017-10-23T06:17:24.981Z,6.10
2017-10-23T06:19:52.625Z,6.10
2017-10-23T06:22:20.194Z,6.20
2017-10-23T06:24:47.748Z,6.20
2017-10-23T06:27:15.406Z,6.30
2017-10-23T06:29:42.991Z,6.30
2017-10-23T06:32:10.555Z,6.40
2017-10-23T06:34:38.187Z,6.30
2017-10-23T06:37:06.519Z,6.30
2017-10-23T06:39:34.101Z,6.30
2017-10-23T06:42:01.648Z,6.30
2017-10-23T06:44:29.218Z,6.30
2017-10-23T06:46:56.805Z,6.30
2017-10-23T06:49:24.364Z,6.20
2017-10-23T06:51:51.966Z,6.30
2017-10-23T06:54:21.347Z,6.30
2017-10-23T06:56:48.946Z,6.30
2017-10-23T06:59:17.276Z,6.20
2017-10-23T07:01:44.872Z,6.20
2017-10-23T07:04:13.210Z,6.30
2017-10-23T07:06:40.822Z,6.30
2017-10-23T07:09:09.159Z,6.30
2017-10-23T07:11:36.701Z,6.30
2017-10-23T07:14:04.301Z,6.40
2017-10-23T07:16:31.855Z,6.40
2017-10-23T07:18:59.466Z,6.40
2017-10-23T07:21:28.062Z,6.40
2017-10-23T07:23:55.646Z,6.50
2017-10-23T07:26:23.285Z,6.50
2017-10-23T07:28:51.628Z,6.50
2017-10-23T07:31:30.037Z,6.40
2017-10-23T07:33:57.672Z,6.40
2017-10-23T07:36:25.302Z,6.50
2017-10-23T07:39:23.572Z,6.50
2017-10-23T07:41:52.511Z,6.40
2017-10-23T07:44:20.093Z,6.40
2017-10-23T07:46:47.717Z,6.40
2017-10-23T07:49:15.342Z,6.50
2017-10-23T07:51:42.882Z,6.60
2017-10-23T07:54:10.691Z,6.60
2017-10-23T07:56:38.419Z,6.80
2017-10-23T07:59:06.019Z,6.90
2017-10-23T08:01:34.427Z,7.00
2017-10-23T08:04:02.070Z,7.00
2017-10-23T08:06:29.617Z,7.00
2017-10-23T08:08:58.945Z,7.20
2017-10-23T08:11:27.355Z,7.40
2017-10-23T08:13:55.021Z,7.40
2017-10-23T08:16:23.042Z,7.60
2017-10-23T08:18:50.606Z,7.70
2017-10-23T08:21:19.384Z,7.70
2017-10-23T08:23:46.960Z,7.90
2017-10-23T08:26:14.504Z,8.00
2017-10-23T08:28:42.085Z,7.90
2017-10-23T08:31:09.657Z,8.00
2017-10-23T08:33:37.242Z,8.10
2017-10-23T08:36:04.824Z,8.10
2017-10-23T08:38:33.512Z,8.10
2017-10-23T08:41:01.173Z,8.10
2017-10-23T08:43:28.746Z,8.20
2017-10-23T08:45:57.263Z,8.20
2017-10-23T08:48:24.867Z,8.20
2017-10-23T08:50:52.523Z,8.20
2017-10-23T08:53:20.099Z,8.10
2017-10-23T08:55:47.665Z,8.10
2017-10-23T08:58:15.361Z,8.10
2017-10-23T09:00:43.784Z,8.30
2017-10-23T09:03:11.489Z,8.20
2017-10-23T09:05:39.108Z,8.50
2017-10-23T09:08:06.696Z,8.60
2017-10-23T09:10:34.484Z,8.80
2017-10-23T09:13:02.041Z,9.00
2017-10-23T09:15:30.557Z,9.10
2017-10-23T09:17:58.330Z,9.20
2017-10-23T09:20:26.820Z,9.50
2017-10-23T09:22:54.597Z,9.50
2017-10-23T09:25:22.162Z,9.40
2017-10-23T09:27:50.466Z,9.30
2017-10-23T09:30:18.071Z,9.30
2017-10-23T09:32:48.901Z,9.30
2017-10-23T09:35:17.292Z,9.10
2017-10-23T09:37:45.133Z,9.10
2017-10-23T09:40:12.773Z,9.20
2017-10-23T09:42:40.376Z,9.30
2017-10-23T09:45:07.989Z,9.30
2017-10-23T09:47:36.360Z,9.50
2017-10-23T09:50:04.153Z,9.50
2017-10-23T09:52:32.793Z,9.60
2017-10-23T09:55:01.948Z,9.60
2017-10-23T09:57:30.318Z,9.70
2017-10-23T10:00:01.801Z,9.60
2017-10-23T10:02:29.407Z,9.60
2017-10-23T10:04:57.274Z,9.50
2017-10-23T10:07:24.870Z,9.40
2017-10-23T10:09:52.470Z,9.40
2017-10-23T10:12:20.150Z,9.50
2017-10-23T10:14:47.767Z,9.70
2017-10-23T10:17:16.318Z,9.40
2017-10-23T10:19:44.873Z,9.10
2017-10-23T10:22:13.808Z,9.10
2017-10-23T10:24:41.607Z,9.10
2017-10-23T10:27:10.038Z,9.10
2017-10-23T10:29:37.872Z,9.10
2017-10-23T10:32:06.802Z,9.00
2017-10-23T10:34:34.608Z,9.00
2017-10-23T10:37:03.032Z,9.20
2017-10-23T10:39:30.642Z,9.20
2017-10-23T10:41:58.292Z,9.30
2017-10-23T10:44:25.954Z,9.30
2017-10-23T10:46:53.924Z,9.30
2017-10-23T10:49:21.477Z,9.40
2017-10-23T10:51:49.216Z,9.40
2017-10-23T10:54:16.788Z,9.40
2017-10-23T10:56:45.150Z,9.30
2017-10-23T10:59:13.167Z,9.30
2017-10-23T11:01:40.754Z,9.10
2017-10-23T11:04:08.322Z,8.90
2017-10-23T11:06:35.970Z,8.70
2017-10-23T11:09:03.555Z,8.50
2017-10-23T11:11:31.280Z,8.30
2017-10-23T11:13:59.633Z,8.60
2017-10-23T11:16:27.213Z,8.60
2017-10-23T11:18:54.803Z,8.90
2017-10-23T11:21:22.365Z,9.10
2017-10-23T11:23:50.042Z,9.10
2017-10-23T11:26:17.602Z,9.10
2017-10-23T11:28:45.293Z,8.70
2017-10-23T11:31:12.857Z,8.60
2017-10-23T11:33:40.503Z,8.40
2017-10-23T11:36:08.118Z,8.30
2017-10-23T11:38:35.726Z,8.20
2017-10-23T11:41:03.284Z,8.20
2017-10-23T11:43:31.617Z,8.20
2017-10-23T11:46:00.245Z,8.20
2017-10-23T11:48:27.809Z,8.20
2017-10-23T11:50:56.249Z,8.50
2017-10-23T11:53:23.809Z,8.50
2017-10-23T11:55:51.390Z,8.60
2017-10-23T11:58:19.760Z,8.70
2017-10-23T12:00:47.352Z,8.60
2017-10-23T12:03:14.938Z,8.60
2017-10-23T12:05:44.414Z,8.50
2017-10-23T12:08:12.842Z,8.40
2017-10-23T12:10:41.185Z,8.50
2017-10-23T12:13:08.784Z,8.50
2017-10-23T12:15:36.331Z,8.50
2017-10-23T12:18:03.915Z,8.50
2017-10-23T12:20:32.265Z,8.60
2017-10-23T12:22:59.844Z,8.60
2017-10-23T12:25:27.394Z,8.70
2017-10-23T12:27:54.987Z,8.70
2017-10-23T12:30:23.288Z,9.00
2017-10-23T12:32:50.921Z,9.00
2017-10-23T12:35:19.263Z,9.00
2017-10-23T12:37:46.827Z,9.00
2017-10-23T12:40:14.428Z,9.10
2017-10-23T12:42:42.014Z,9.10
2017-10-23T12:45:09.663Z,9.20
2017-10-23T12:47:37.248Z,9.20
2017-10-23T12:50:05.566Z,9.30
2017-10-23T12:52:36.830Z,9.30
2017-10-23T12:55:04.675Z,9.20
2017-10-23T12:57:32.237Z,9.20
2017-10-23T12:59:59.826Z,9.00
2017-10-23T13:02:27.391Z,9.00
2017-10-23T13:04:54.974Z,8.90
2017-10-23T13:07:22.567Z,8.80
2017-10-23T13:09:50.119Z,8.70
2017-10-23T13:12:17.711Z,8.60
2017-10-23T13:14:46.943Z,8.50
2017-10-23T13:17:14.583Z,8.50
2017-10-23T13:19:42.158Z,8.50
2017-10-23T13:22:09.759Z,8.60
2017-10-23T13:24:37.564Z,8.60
2017-10-23T13:27:06.002Z,8.80
2017-10-23T13:29:33.574Z,8.80
2017-10-23T13:32:01.112Z,8.80
2017-10-23T13:34:28.672Z,8.80
2017-10-23T13:36:56.301Z,8.70
2017-10-23T13:39:23.993Z,8.80
2017-10-23T13:41:52.326Z,8.70
2017-10-23T13:44:19.949Z,8.70
2017-10-23T13:46:48.519Z,8.90
2017-10-23T13:49:16.282Z,8.90
2017-10-23T13:51:44.658Z,8.70
2017-10-23T13:54:13.549Z,8.80
2017-10-23T13:56:41.932Z,8.90
2017-10-23T13:59:09.525Z,8.80
2017-10-23T14:01:37.864Z,8.80
2017-10-23T14:04:05.511Z,8.80
2017-10-23T14:06:33.110Z,8.60
2017-10-23T14:09:01.569Z,8.60
2017-10-23T14:11:29.189Z,8.60
2017-10-23T14:13:57.539Z,8.30
2017-10-23T14:16:25.905Z,8.20
2017-10-23T14:18:53.520Z,8.20
2017-10-23T14:21:21.868Z,8.00
2017-10-23T14:23:49.584Z,8.00
2017-10-23T14:26:17.196Z,7.90
2017-10-23T14:28:44.808Z,7.90
2017-10-23T14:31:13.141Z,7.90
2017-10-23T14:33:40.745Z,7.90
2017-10-23T14:36:09.101Z,7.80
2017-10-23T14:38:36.762Z,7.80
2017-10-23T14:41:05.140Z,7.80
2017-10-23T14:43:32.843Z,7.80
2017-10-23T14:46:01.222Z,7.80
2017-10-23T14:48:29.634Z,7.80
2017-10-23T14:50:57.233Z,7.80
2017-10-23T14:53:24.847Z,7.80
2017-10-23T14:55:53.220Z,7.90
2017-10-23T14:58:21.574Z,7.80
2017-10-23T15:00:49.166Z,7.80
2017-10-23T15:03:17.488Z,7.80
2017-10-23T15:05:45.171Z,7.80
2017-10-23T15:08:12.728Z,7.80
2017-10-23T15:10:41.387Z,7.80
2017-10-23T15:13:09.011Z,7.80
2017-10-23T15:15:36.612Z,7.80
2017-10-23T15:18:04.984Z,7.90
2017-10-23T15:20:32.606Z,7.80
2017-10-23T15:23:00.919Z,7.90
2017-10-23T15:25:29.568Z,7.80
2017-10-23T15:27:57.370Z,7.90
2017-10-23T15:30:24.944Z,7.80
2017-10-23T15:32:52.554Z,7.90
2017-10-23T15:35:20.129Z,7.90
2017-10-23T15:37:47.714Z,7.80
2017-10-23T15:40:15.287Z,7.80
2017-10-23T15:42:42.854Z,7.80
2017-10-23T15:45:10.441Z,7.90
2017-10-23T15:47:38.792Z,7.80
2017-10-23T15:50:06.603Z,7.90
2017-10-23T15:52:34.224Z,7.80
2017-10-23T15:55:01.791Z,7.80
2017-10-23T15:57:29.353Z,7.80
2017-10-23T15:59:56.929Z,7.70
2017-10-23T16:02:24.496Z,7.70
2017-10-23T16:04:52.077Z,7.70
2017-10-23T16:07:19.601Z,7.60
2017-10-23T16:09:47.156Z,7.60
2017-10-23T16:12:14.719Z,7.60
2017-10-23T16:14:42.413Z,7.50
2017-10-23T16:17:09.949Z,7.50
2017-10-23T16:19:37.516Z,7.50
2017-10-23T16:22:05.067Z,7.40
2017-10-23T16:24:32.691Z,7.40
2017-10-23T16:27:01.059Z,7.40
2017-10-23T16:29:28.658Z,7.30
2017-10-23T16:31:57.007Z,7.40
2017-10-23T16:34:24.664Z,7.40
2017-10-23T16:36:52.236Z,7.40
2017-10-23T16:39:19.818Z,7.40
2017-10-23T16:41:47.429Z,7.30
2017-10-23T16:44:15.013Z,7.30
2017-10-23T16:46:42.790Z,7.20
2017-10-23T16:49:10.387Z,7.20
2017-10-23T16:51:37.961Z,7.20
2017-10-23T16:54:05.504Z,7.20
2017-10-23T16:56:35.951Z,7.20
2017-10-23T16:59:04.370Z,7.20
2017-10-23T17:01:31.961Z,7.20
2017-10-23T17:03:59.586Z,7.20
2017-10-23T17:06:27.150Z,7.20
2017-10-23T17:08:55.545Z,7.20
2017-10-23T17:11:23.104Z,7.20
2017-10-23T17:13:51.399Z,7.30
2017-10-23T17:16:18.982Z,7.30
2017-10-23T17:18:46.511Z,7.30
2017-10-23T17:21:14.148Z,7.20
2017-10-23T17:23:41.669Z,7.20
2017-10-23T17:26:10.029Z,7.30
2017-10-23T17:28:37.593Z,7.20
2017-10-23T17:31:05.885Z,7.20
2017-10-23T17:33:33.463Z,7.20
2017-10-23T17:36:01.105Z,7.20
2017-10-23T17:38:29.534Z,7.20
2017-10-23T17:40:57.135Z,7.20
2017-10-23T17:43:25.452Z,7.30
2017-10-23T17:45:52.987Z,7.30
2017-10-23T19:02:19.548Z,7.50
2017-10-23T19:04:47.734Z,7.50
2017-10-23T19:07:15.326Z,7.50
2017-10-23T19:09:42.882Z,7.50
2017-10-23T19:12:10.451Z,7.50
2017-10-23T19:14:40.858Z,7.60
2017-10-23T19:17:09.197Z,7.50
2017-10-23T19:19:37.009Z,7.50
2017-10-23T19:22:05.424Z,7.50
2017-10-23T19:24:33.445Z,7.50
2017-10-23T19:27:01.469Z,7.50
2017-10-23T19:29:29.793Z,7.50
2017-10-23T19:31:58.586Z,7.50
2017-10-23T19:34:26.247Z,7.50
2017-10-23T19:36:53.911Z,7.50
2017-10-23T19:39:22.439Z,7.40
2017-10-23T19:41:50.129Z,7.50
2017-10-23T19:44:23.315Z,7.40
2017-10-23T19:46:50.884Z,7.50
2017-10-23T19:49:18.544Z,7.50
2017-10-23T19:51:46.162Z,7.50
2017-10-23T19:54:13.775Z,7.50
2017-10-23T19:56:42.257Z,7.50
2017-10-23T19:59:10.780Z,7.50
2017-10-23T20:01:38.424Z,7.50
2017-10-23T20:04:06.940Z,7.50
2017-10-23T20:06:34.627Z,7.50
2017-10-23T20:09:03.224Z,7.50
2017-10-23T20:11:30.834Z,7.50
2017-10-23T20:13:58.388Z,7.50
2017-10-23T20:16:26.715Z,7.50
2017-10-23T20:18:54.381Z,7.50
2017-10-23T20:21:21.981Z,7.40
2017-10-23T20:23:50.373Z,7.40
2017-10-23T20:26:18.698Z,7.40
2017-10-23T20:28:46.259Z,7.40
2017-10-23T20:31:13.850Z,7.40
2017-10-23T20:33:41.462Z,7.40
2017-10-23T20:36:09.010Z,7.40
2017-10-23T20:38:37.351Z,7.50
2017-10-23T20:41:04.887Z,7.40
2017-10-23T20:43:32.408Z,7.50
2017-10-23T20:46:00.204Z,7.50
2017-10-23T20:48:27.747Z,7.50
2017-10-23T20:50:55.290Z,7.50
2017-10-23T20:53:22.927Z,7.50
2017-10-23T20:55:50.474Z,7.40
2017-10-23T20:58:18.180Z,7.40
2017-10-23T21:00:45.738Z,7.40
2017-10-23T21:03:13.312Z,7.40
2017-10-23T21:05:40.981Z,7.30
2017-10-23T21:08:08.515Z,7.30
2017-10-23T21:10:36.077Z,7.20
2017-10-23T21:13:03.757Z,7.20
2017-10-23T21:15:31.342Z,7.20
2017-10-23T21:17:58.912Z,7.20
2017-10-23T21:20:27.612Z,7.20
2017-10-23T21:22:55.968Z,7.10
2017-10-23T21:25:23.541Z,7.10
2017-10-23T21:27:51.276Z,7.10
2017-10-23T21:30:19.045Z,7.10
2017-10-23T21:32:46.594Z,7.10
2017-10-23T21:35:15.870Z,7.10
2017-10-23T21:37:43.509Z,7.10
2017-10-23T21:40:11.100Z,7.10
2017-10-23T21:42:39.444Z,7.00
2017-10-23T21:45:07.039Z,7.00
2017-10-23T21:47:35.675Z,7.00
2017-10-23T21:50:03.210Z,7.00
2017-10-23T21:52:30.746Z,6.90
2017-10-23T21:54:58.316Z,6.90
2017-10-23T21:57:25.851Z,6.90
2017-10-23T21:59:53.424Z,6.80
2017-10-23T22:02:20.999Z,6.70
2017-10-23T22:04:48.568Z,6.70
2017-10-23T22:07:16.157Z,6.70
2017-10-23T22:09:44.477Z,6.60
2017-10-23T22:12:12.055Z,6.60
2017-10-23T22:14:44.462Z,6.60
2017-10-23T22:17:12.024Z,6.60
2017-10-23T22:19:39.634Z,6.60
2017-10-23T22:22:07.215Z,6.60
2017-10-23T22:24:34.807Z,6.70
2017-10-23T22:27:02.359Z,6.70
2017-10-23T22:29:29.946Z,6.70
2017-10-23T22:31:57.514Z,6.80
2017-10-23T22:34:25.082Z,6.80
2017-10-23T22:36:52.632Z,6.90
2017-10-23T22:39:20.195Z,6.90
2017-10-23T22:41:47.733Z,6.90
2017-10-23T22:44:15.292Z,6.90
2017-10-23T22:46:43.778Z,7.00
2017-10-23T22:49:11.347Z,7.00
2017-10-23T22:51:38.889Z,7.00
2017-10-23T22:54:07.169Z,7.10
2017-10-23T22:56:35.474Z,7.10
2017-10-23T22:59:03.030Z,7.10
2017-10-23T23:01:30.619Z,7.10
2017-10-23T23:03:58.179Z,7.20
2017-10-23T23:06:25.734Z,7.20
2017-10-23T23:08:53.323Z,7.20
2017-10-23T23:11:20.854Z,7.20
2017-10-23T23:13:49.168Z,7.30
2017-10-23T23:16:17.503Z,7.30
2017-10-23T23:18:45.805Z,7.30
2017-10-23T23:21:13.359Z,7.30
2017-10-23T23:23:41.694Z,7.40
2017-10-23T23:26:09.233Z,7.40
2017-10-23T23:28:36.781Z,7.40
2017-10-23T23:31:05.157Z,7.40
2017-10-23T23:33:33.479Z,7.40
2017-10-23T23:36:01.050Z,7.40
2017-10-23T23:38:28.596Z,7.40
2017-10-23T23:40:56.136Z,7.50
2017-10-23T23:43:24.478Z,7.60
2017-10-23T23:45:52.030Z,7.60
2017-10-23T23:48:19.621Z,7.70
2017-10-23T23:50:47.155Z,7.70
2017-10-23T23:53:14.716Z,7.70
2017-10-23T23:55:42.275Z,7.70
2017-10-23T23:58:09.824Z,7.70
